Time;durP1;ratioP1;P1;durP2;ratioP2;P2;SDS_P1;SDS_P2;PMS_P1;PMS_P2;Temp;Humidity;BMP_temperature;BMP_pressure;BME280_temperature;BME280_humidity;BME280_pressure;Samples;Min_cycle;Max_cycle;Signal;HPM_P1;HPM_P2
2023/01/03 00:01:48;;;;;;;;;;;;;;;16.07;nan;102072.72;5017394;28;19917;-36
2023/01/03 00:04:14;;;;;;;;;;;;;;;16.07;nan;102069.22;5013435;28;19932;-36
2023/01/03 00:06:42;;;;;;;;;;;;;;;16.09;nan;102067.06;5017204;28;20007;-36
2023/01/03 00:09:08;;;;;;;;;;;;;;;16.11;nan;102075.72;5014752;28;19947;-36
2023/01/03 00:14:22;;;;;;;;;;;;;;;16.21;nan;102089.38;5015209;28;19975;-36
2023/01/03 00:16:49;;;;;;;;;;;;;;;16.21;nan;102092.91;5017048;28;20334;-36
2023/01/03 00:19:14;;;;;;;;;;;;;;;16.25;nan;102095.91;5013086;28;19952;-36
2023/01/03 00:21:40;;;;;;;;;;;;;;;16.23;nan;102093.47;5017610;28;19976;-35
2023/01/03 00:24:06;;;;;;;;;;;;;;;16.18;nan;102090.72;5016983;28;19917;-36
2023/01/03 00:26:31;;;;;;;;;;;;;;;16.17;nan;102096.38;5014883;28;19928;-36
2023/01/03 00:28:57;;;;;;;;;;;;;;;16.19;nan;102095.03;5014800;28;20004;-36
2023/01/03 00:31:22;;;;;;;;;;;;;;;16.24;nan;102097.00;5014577;28;19921;-36
2023/01/03 00:33:48;;;;;;;;;;;;;;;16.28;nan;102106.22;5013148;28;20023;-36
2023/01/03 00:36:13;;;;;;;;;;;;;;;16.31;nan;102109.22;5017022;28;19993;-36
2023/01/03 00:38:38;;;;;;;;;;;;;;;16.20;nan;102103.97;5013524;28;19921;-36
2023/01/03 00:41:05;;;;;;;;;;;;;;;16.15;nan;102107.41;5016700;28;19928;-36
2023/01/03 00:43:31;;;;;;;;;;;;;;;16.23;nan;102117.81;5016016;28;20151;-36
2023/01/03 00:45:57;;;;;;;;;;;;;;;16.25;nan;102114.84;5015527;28;20367;-36
2023/01/03 00:48:22;;;;;;;;;;;;;;;16.24;nan;102111.31;5014739;28;19921;-36
2023/01/03 00:50:47;;;;;;;;;;;;;;;16.18;nan;102117.75;5016751;28;20395;-36
2023/01/03 00:53:13;;;;;;;;;;;;;;;16.16;nan;102124.47;5013070;28;19971;-36
2023/01/03 00:55:38;;;;;;;;;;;;;;;16.11;nan;102133.31;5014102;28;19925;-36
2023/01/03 00:58:03;;;;;;;;;;;;;;;16.06;nan;102144.09;5015315;28;19956;-36
2023/01/03 01:00:29;;;;;;;;;;;;;;;16.04;nan;102148.13;5015130;28;19917;-36
2023/01/03 01:02:54;;;;;;;;;;;;;;;16.04;nan;102154.34;5018842;28;19918;-36
2023/01/03 01:05:20;;;;;;;;;;;;;;;16.01;nan;102158.38;5012210;28;19921;-36
2023/01/03 01:07:45;;;;;;;;;;;;;;;15.98;nan;102166.16;5013410;28;20435;-35
2023/01/03 01:10:11;;;;;;;;;;;;;;;15.94;nan;102168.53;5017756;28;20008;-36
2023/01/03 01:12:36;;;;;;;;;;;;;;;15.93;nan;102169.59;5016929;28;20383;-35
2023/01/03 01:15:01;;;;;;;;;;;;;;;15.87;nan;102176.00;5013773;28;19918;-36
2023/01/03 01:17:27;;;;;;;;;;;;;;;15.81;nan;102179.69;5015586;28;19921;-36
2023/01/03 01:19:52;;;;;;;;;;;;;;;15.83;nan;102184.84;5019847;28;19960;-35
2023/01/03 01:22:18;;;;;;;;;;;;;;;15.79;nan;102178.28;5021289;28;19914;-36
2023/01/03 01:24:43;;;;;;;;;;;;;;;15.76;nan;102186.91;5020056;28;19928;-35
2023/01/03 01:27:09;;;;;;;;;;;;;;;15.75;nan;102187.97;5013744;28;20436;-36
2023/01/03 01:29:36;;;;;;;;;;;;;;;15.73;nan;102195.50;5019782;28;20271;-36
2023/01/03 01:32:01;;;;;;;;;;;;;;;15.68;nan;102196.25;5021730;28;20068;-36
2023/01/03 01:34:27;;;;;;;;;;;;;;;15.64;nan;102195.94;5020808;28;20000;-35
2023/01/03 01:36:52;;;;;;;;;;;;;;;15.65;nan;102194.03;5021396;28;19991;-36
2023/01/03 01:39:22;;;;;;;;;;;;;;;15.60;nan;102207.47;5016599;28;19924;-36
2023/01/03 01:44:39;;;;;;;;;;;;;;;15.65;nan;102205.69;4998582;28;19924;-36
2023/01/03 01:47:09;;;;;;;;;;;;;;;15.68;nan;102209.75;5018722;28;20000;-36
2023/01/03 01:49:35;;;;;;;;;;;;;;;15.71;nan;102215.50;5024328;22;19937;-32
2023/01/03 01:52:01;;;;;;;;;;;;;;;15.74;nan;102218.75;5005441;28;20320;-32
2023/01/03 01:54:27;;;;;;;;;;;;;;;15.77;nan;102229.88;5006821;28;19968;-32
2023/01/03 01:56:53;;;;;;;;;;;;;;;15.82;nan;102213.78;5006066;28;20044;-32
2023/01/03 01:59:18;;;;;;;;;;;;;;;15.84;nan;102221.63;5003350;28;20791;-32
2023/01/03 02:01:45;;;;;;;;;;;;;;;15.77;nan;102226.38;4995510;28;19936;-32
2023/01/03 02:04:16;;;;;;;;;;;;;;;15.78;nan;102231.53;4996970;28;19917;-32
2023/01/03 02:06:42;;;;;;;;;;;;;;;15.75;nan;102234.72;4996200;28;19979;-32
2023/01/03 02:09:07;;;;;;;;;;;;;;;15.75;nan;102231.19;4999424;28;19921;-32
2023/01/03 02:11:44;;;;;;;;;;;;;;;15.76;nan;102228.25;5001311;28;20078;-32
2023/01/03 02:14:13;;;;;;;;;;;;;;;15.81;nan;102235.63;4998306;28;20429;-32
2023/01/03 02:17:14;;;;;;;;;;;;;;;15.80;nan;102240.22;4998537;28;19956;-32
2023/01/03 02:19:54;;;;;;;;;;;;;;;15.81;nan;102246.44;5024014;28;19972;-32
2023/01/03 02:22:19;;;;;;;;;;;;;;;15.77;nan;102251.50;5003976;28;20309;-32
2023/01/03 02:25:03;;;;;;;;;;;;;;;15.79;nan;102259.38;4997684;28;19925;-32
2023/01/03 02:27:35;;;;;;;;;;;;;;;15.81;nan;102262.66;4997751;28;20359;-32
2023/01/03 02:30:03;;;;;;;;;;;;;;;15.83;nan;102263.25;4996088;28;20441;-32
2023/01/03 02:32:38;;;;;;;;;;;;;;;15.84;nan;102267.56;4998442;28;19983;-32
2023/01/03 02:35:23;;;;;;;;;;;;;;;15.84;nan;102275.69;5001422;28;20008;-32
2023/01/03 02:38:04;;;;;;;;;;;;;;;15.83;nan;102279.44;4995471;28;19983;-32
2023/01/03 02:40:38;;;;;;;;;;;;;;;15.81;nan;102276.19;4996503;28;19940;-32
2023/01/03 02:43:04;;;;;;;;;;;;;;;15.78;nan;102280.16;4997819;28;20377;-32
2023/01/03 02:45:33;;;;;;;;;;;;;;;15.80;nan;102278.06;4999373;28;20049;-32
2023/01/03 02:48:21;;;;;;;;;;;;;;;15.77;nan;102283.13;4997706;28;20493;-32
2023/01/03 02:50:48;;;;;;;;;;;;;;;15.78;nan;102290.16;4998120;28;19922;-32
2023/01/03 02:53:20;;;;;;;;;;;;;;;15.73;nan;102301.72;4994026;28;19922;-32
2023/01/03 02:55:48;;;;;;;;;;;;;;;15.71;nan;102306.53;4999917;28;20358;-32
2023/01/03 02:58:17;;;;;;;;;;;;;;;15.68;nan;102301.63;4999282;28;19940;-32
2023/01/03 03:00:44;;;;;;;;;;;;;;;15.65;nan;102307.53;5000326;28;19922;-32
2023/01/03 03:03:12;;;;;;;;;;;;;;;15.64;nan;102311.28;4996367;28;20041;-32
2023/01/03 03:05:51;;;;;;;;;;;;;;;15.63;nan;102312.34;4996178;28;20015;-32
2023/01/03 03:08:16;;;;;;;;;;;;;;;15.61;nan;102312.56;5000432;28;19925;-32
2023/01/03 03:13:47;;;;;;;;;;;;;;;15.58;nan;102312.22;4995109;28;19991;-32
2023/01/03 03:16:16;;;;;;;;;;;;;;;15.57;nan;102315.97;5002232;28;19917;-32
2023/01/03 03:18:54;;;;;;;;;;;;;;;15.54;nan;102316.47;4999207;28;20561;-32
2023/01/03 03:26:55;;;;;;;;;;;;;;;15.27;nan;102327.88;4998341;28;19924;-32
2023/01/03 03:29:21;;;;;;;;;;;;;;;15.22;nan;102335.84;4998353;28;19926;-32
2023/01/03 03:31:48;;;;;;;;;;;;;;;15.19;nan;102341.75;4995007;28;19968;-32
2023/01/03 03:34:31;;;;;;;;;;;;;;;15.07;nan;102347.16;4993889;28;19925;-32
2023/01/03 03:36:56;;;;;;;;;;;;;;;14.99;nan;102341.34;4994979;28;19980;-32
2023/01/03 03:45:26;;;;;;;;;;;;;;;14.79;nan;102364.13;4994180;28;20393;-32
2023/01/03 03:47:51;;;;;;;;;;;;;;;14.72;nan;102370.69;4991875;28;20389;-32
2023/01/03 03:50:21;;;;;;;;;;;;;;;14.69;nan;102373.88;5001217;28;19925;-32
2023/01/03 03:52:48;;;;;;;;;;;;;;;14.70;nan;102376.34;4999721;28;19925;-32
2023/01/03 03:55:20;;;;;;;;;;;;;;;14.70;nan;102381.72;5004080;28;19918;-32
2023/01/03 03:58:06;;;;;;;;;;;;;;;14.69;nan;102385.50;5000564;28;20004;-32
2023/01/03 04:00:33;;;;;;;;;;;;;;;14.70;nan;102384.44;4995338;28;19921;-32
2023/01/03 04:03:00;;;;;;;;;;;;;;;14.71;nan;102382.56;5000359;28;20501;-32
2023/01/03 04:05:28;;;;;;;;;;;;;;;14.66;nan;102391.34;5001129;28;19917;-32
2023/01/03 04:07:54;;;;;;;;;;;;;;;14.64;nan;102392.66;5002539;28;21362;-32
2023/01/03 04:10:20;;;;;;;;;;;;;;;14.53;nan;102399.69;5001887;28;20004;-32
2023/01/03 04:12:46;;;;;;;;;;;;;;;14.46;nan;102407.91;4997057;28;20467;-32
2023/01/03 04:15:12;;;;;;;;;;;;;;;14.44;nan;102404.63;5005245;28;19917;-32
2023/01/03 04:17:37;;;;;;;;;;;;;;;14.44;nan;102398.41;4997808;28;19917;-32
2023/01/03 04:20:02;;;;;;;;;;;;;;;14.39;nan;102420.66;5001286;28;19918;-32
2023/01/03 04:22:28;;;;;;;;;;;;;;;14.35;nan;102418.63;5003052;28;19994;-32
2023/01/03 04:24:53;;;;;;;;;;;;;;;14.33;nan;102416.16;5000099;28;19932;-32
2023/01/03 04:27:19;;;;;;;;;;;;;;;14.27;nan;102417.09;5005140;28;19917;-32
2023/01/03 04:29:44;;;;;;;;;;;;;;;14.12;nan;102425.63;4998012;28;19930;-32
2023/01/03 04:32:09;;;;;;;;;;;;;;;14.06;nan;102423.03;5003440;28;19932;-32
2023/01/03 04:34:35;;;;;;;;;;;;;;;14.04;nan;102430.53;4999117;28;19917;-32
2023/01/03 04:37:00;;;;;;;;;;;;;;;14.02;nan;102438.84;5001185;28;19933;-32
2023/01/03 04:39:26;;;;;;;;;;;;;;;13.99;nan;102444.69;5001489;28;19924;-32
2023/01/03 04:41:51;;;;;;;;;;;;;;;13.92;nan;102449.34;4997503;28;19921;-32
2023/01/03 04:44:16;;;;;;;;;;;;;;;13.92;nan;102454.75;5001701;28;19965;-32
2023/01/03 04:46:41;;;;;;;;;;;;;;;13.89;nan;102461.41;4997179;28;19957;-32
2023/01/03 04:49:08;;;;;;;;;;;;;;;13.86;nan;102458.34;5001325;28;20008;-32
2023/01/03 04:51:34;;;;;;;;;;;;;;;13.88;nan;102461.66;4998323;28;19929;-32
2023/01/03 04:53:59;;;;;;;;;;;;;;;13.79;nan;102461.13;5002947;28;19925;-32
2023/01/03 04:56:32;;;;;;;;;;;;;;;13.74;nan;102457.47;5004760;28;19980;-31
2023/01/03 04:58:58;;;;;;;;;;;;;;;13.71;nan;102456.06;5002324;28;19921;-32
2023/01/03 05:01:24;;;;;;;;;;;;;;;13.65;nan;102448.09;5004163;28;19917;-31
2023/01/03 05:03:50;;;;;;;;;;;;;;;13.61;nan;102459.28;4997852;28;20008;-32
2023/01/03 05:06:16;;;;;;;;;;;;;;;13.56;nan;102461.84;5005222;28;19960;-31
2023/01/03 05:08:46;;;;;;;;;;;;;;;13.54;nan;102480.09;4999302;28;19968;-32
2023/01/03 05:11:11;;;;;;;;;;;;;;;13.53;nan;102481.16;5006358;28;19921;-32
2023/01/03 05:13:37;;;;;;;;;;;;;;;13.45;nan;102486.81;5003117;28;20393;-32
2023/01/03 05:16:04;;;;;;;;;;;;;;;13.38;nan;102479.88;5004862;28;19924;-32
2023/01/03 05:18:29;;;;;;;;;;;;;;;13.36;nan;102481.97;5002954;28;19922;-32
2023/01/03 05:26:22;;;;;;;;;;;;;;;13.17;nan;102489.19;5006039;28;19925;-32
2023/01/03 05:28:49;;;;;;;;;;;;;;;13.17;nan;102494.56;5000899;28;19951;-31
2023/01/03 05:31:15;;;;;;;;;;;;;;;13.17;nan;102500.78;5004566;28;19948;-31
2023/01/03 05:33:40;;;;;;;;;;;;;;;13.10;nan;102499.19;5004150;28;20402;-32
2023/01/03 05:36:06;;;;;;;;;;;;;;;13.10;nan;102509.94;5004628;28;19929;-31
2023/01/03 05:38:32;;;;;;;;;;;;;;;13.07;nan;102516.59;5006466;28;19918;-31
2023/01/03 05:40:57;;;;;;;;;;;;;;;13.05;nan;102510.63;5001379;28;20322;-32
2023/01/03 05:43:23;;;;;;;;;;;;;;;13.01;nan;102512.94;5002655;28;19917;-32
2023/01/03 05:45:50;;;;;;;;;;;;;;;13.00;nan;102511.28;5004829;28;20012;-32
2023/01/03 05:48:15;;;;;;;;;;;;;;;13.01;nan;102506.72;5003356;28;20016;-32
2023/01/03 05:50:40;;;;;;;;;;;;;;;12.92;nan;102516.94;5001623;28;20329;-31
2023/01/03 05:53:06;;;;;;;;;;;;;;;12.94;nan;102522.13;5002877;28;19945;-31
2023/01/03 05:55:31;;;;;;;;;;;;;;;12.91;nan;102512.59;5000869;28;19925;-31
2023/01/03 05:57:56;;;;;;;;;;;;;;;12.86;nan;102519.69;5002396;28;19928;-32
2023/01/03 06:00:22;;;;;;;;;;;;;;;12.84;nan;102522.59;5004753;28;19965;-32
2023/01/03 06:02:47;;;;;;;;;;;;;;;12.84;nan;102533.38;5000586;28;20399;-31
2023/01/03 06:05:12;;;;;;;;;;;;;;;12.83;nan;102531.72;5001164;28;20286;-31
2023/01/03 06:07:38;;;;;;;;;;;;;;;12.79;nan;102538.59;4999550;28;20068;-31
2023/01/03 06:10:04;;;;;;;;;;;;;;;12.77;nan;102537.97;5002176;28;19924;-31
2023/01/03 06:12:29;;;;;;;;;;;;;;;12.81;nan;102541.88;5005608;28;20379;-32
2023/01/03 06:14:55;;;;;;;;;;;;;;;12.80;nan;102542.09;5002896;28;19934;-32
2023/01/03 06:20:05;;;;;;;;;;;;;;;12.83;nan;102547.84;5005039;28;19928;-31
2023/01/03 06:22:30;;;;;;;;;;;;;;;12.83;nan;102547.84;5002912;28;20565;-31
2023/01/03 06:24:55;;;;;;;;;;;;;;;12.82;nan;102554.28;5008557;28;20130;-31
2023/01/03 06:27:21;;;;;;;;;;;;;;;12.82;nan;102551.59;5000952;28;20183;-31
2023/01/03 06:29:46;;;;;;;;;;;;;;;12.81;nan;102555.31;5001968;28;19921;-31
2023/01/03 06:32:11;;;;;;;;;;;;;;;12.80;nan;102559.06;4995571;28;20135;-31
2023/01/03 06:34:37;;;;;;;;;;;;;;;12.76;nan;102560.53;5002191;28;20307;-31
2023/01/03 06:37:02;;;;;;;;;;;;;;;12.82;nan;102559.66;5004180;28;19953;-31
2023/01/03 06:39:28;;;;;;;;;;;;;;;12.81;nan;102566.09;5004609;28;19917;-31
2023/01/03 06:41:53;;;;;;;;;;;;;;;12.71;nan;102565.72;5004082;28;20182;-32
2023/01/03 06:44:18;;;;;;;;;;;;;;;12.69;nan;102578.56;5004404;28;19941;-31
2023/01/03 06:55:12;;;;;;;;;;;;;;;12.66;nan;102589.78;4998407;28;19932;-31
2023/01/03 06:57:37;;;;;;;;;;;;;;;12.61;nan;102593.13;4999108;28;20306;-31
2023/01/03 07:00:03;;;;;;;;;;;;;;;12.55;nan;102590.44;4995591;28;19918;-32
2023/01/03 07:02:29;;;;;;;;;;;;;;;12.50;nan;102592.97;4999483;28;19971;-31
2023/01/03 07:04:54;;;;;;;;;;;;;;;12.47;nan;102594.22;4999814;28;20056;-31
2023/01/03 07:07:19;;;;;;;;;;;;;;;12.48;nan;102600.44;4991153;28;19952;-31
2023/01/03 07:09:45;;;;;;;;;;;;;;;12.46;nan;102602.50;4999920;28;20334;-31
2023/01/03 07:14:54;;;;;;;;;;;;;;;12.39;nan;102611.44;4999782;28;20291;-31
2023/01/03 07:17:19;;;;;;;;;;;;;;;12.34;nan;102613.13;5003025;28;19918;-31
2023/01/03 07:19:44;;;;;;;;;;;;;;;12.33;nan;102612.28;5002546;28;19927;-31
2023/01/03 07:22:10;;;;;;;;;;;;;;;12.24;nan;102627.03;5002471;28;19922;-31
2023/01/03 07:24:35;;;;;;;;;;;;;;;12.18;nan;102622.47;4997075;28;20356;-31
2023/01/03 07:27:00;;;;;;;;;;;;;;;12.15;nan;102625.59;4998710;28;19929;-31
2023/01/03 07:29:26;;;;;;;;;;;;;;;12.13;nan;102635.75;4998821;28;19922;-31
2023/01/03 07:31:51;;;;;;;;;;;;;;;12.11;nan;102629.75;4999735;28;19940;-31
2023/01/03 07:34:17;;;;;;;;;;;;;;;12.12;nan;102625.22;4994301;28;19964;-31
2023/01/03 07:36:43;;;;;;;;;;;;;;;12.08;nan;102635.56;4988941;28;19922;-31
2023/01/03 07:39:08;;;;;;;;;;;;;;;12.03;nan;102635.38;4990152;28;20402;-31
2023/01/03 07:44:17;;;;;;;;;;;;;;;12.00;nan;102641.16;4990689;28;20342;-31
2023/01/03 07:46:43;;;;;;;;;;;;;;;12.05;nan;102644.03;4989996;28;19957;-31
2023/01/03 07:49:08;;;;;;;;;;;;;;;12.08;nan;102646.31;4989838;28;19946;-31
2023/01/03 07:51:33;;;;;;;;;;;;;;;12.04;nan;102650.47;4994057;28;20278;-31
2023/01/03 07:53:59;;;;;;;;;;;;;;;12.04;nan;102656.66;4993447;28;19922;-31
2023/01/03 07:56:24;;;;;;;;;;;;;;;12.03;nan;102660.38;4990071;28;19925;-31
2023/01/03 07:58:50;;;;;;;;;;;;;;;12.05;nan;102668.22;4989832;28;19975;-31
2023/01/03 08:01:20;;;;;;;;;;;;;;;12.04;nan;102667.41;4989852;28;20375;-31
2023/01/03 08:03:46;;;;;;;;;;;;;;;12.02;nan;102664.06;4990301;28;19922;-31
2023/01/03 08:06:13;;;;;;;;;;;;;;;11.96;nan;102669.47;4989504;28;19928;-31
2023/01/03 08:08:38;;;;;;;;;;;;;;;11.97;nan;102666.56;4989252;28;20161;-31
2023/01/03 08:13:48;;;;;;;;;;;;;;;11.93;nan;102659.16;4990319;28;19933;-31
2023/01/03 08:16:15;;;;;;;;;;;;;;;12.00;nan;102678.75;4989762;28;20291;-31
2023/01/03 08:18:41;;;;;;;;;;;;;;;11.97;nan;102669.25;4989181;28;19918;-31
2023/01/03 08:21:07;;;;;;;;;;;;;;;11.99;nan;102669.88;4990057;28;19918;-31
2023/01/03 08:23:33;;;;;;;;;;;;;;;12.05;nan;102670.91;4989695;28;20371;-31
2023/01/03 08:26:03;;;;;;;;;;;;;;;12.04;nan;102682.69;4989759;28;19925;-31
2023/01/03 08:28:29;;;;;;;;;;;;;;;12.08;nan;102678.53;4988758;28;19914;-31
2023/01/03 08:30:55;;;;;;;;;;;;;;;12.08;nan;102678.53;4990305;28;19932;-31
2023/01/03 08:33:20;;;;;;;;;;;;;;;12.08;nan;102690.13;4989383;28;19925;-31
2023/01/03 08:35:56;;;;;;;;;;;;;;;12.05;nan;102690.53;4989752;28;21341;-31
2023/01/03 08:38:24;;;;;;;;;;;;;;;12.09;nan;102685.56;4989274;28;19921;-31
2023/01/03 08:40:50;;;;;;;;;;;;;;;12.16;nan;102688.22;4989641;28;20295;-31
2023/01/03 08:43:16;;;;;;;;;;;;;;;12.18;nan;102703.09;4989581;28;19925;-31
2023/01/03 08:45:41;;;;;;;;;;;;;;;12.16;nan;102701.66;4989566;28;19924;-31
2023/01/03 08:48:08;;;;;;;;;;;;;;;12.20;nan;102705.56;4989628;28;19996;-31
2023/01/03 08:50:34;;;;;;;;;;;;;;;12.21;nan;102709.91;4989002;28;19918;-31
2023/01/03 08:53:03;;;;;;;;;;;;;;;12.29;nan;102707.00;4988815;28;20206;-31
2023/01/03 08:55:29;;;;;;;;;;;;;;;12.34;nan;102709.88;4989519;28;19926;-31
2023/01/03 08:57:54;;;;;;;;;;;;;;;12.42;nan;102715.03;4989035;28;20572;-31
2023/01/03 09:00:20;;;;;;;;;;;;;;;12.50;nan;102720.16;4989636;28;20141;-31
2023/01/03 09:02:45;;;;;;;;;;;;;;;12.52;nan;102719.94;4989401;28;19925;-31
2023/01/03 09:05:10;;;;;;;;;;;;;;;12.59;nan;102724.28;4989820;28;19922;-31
2023/01/03 09:07:36;;;;;;;;;;;;;;;12.67;nan;102731.25;4988672;28;20395;-31
2023/01/03 09:10:01;;;;;;;;;;;;;;;12.78;nan;102721.72;4989323;28;19944;-31
2023/01/03 09:12:27;;;;;;;;;;;;;;;12.75;nan;102725.66;4988842;28;19922;-31
2023/01/03 09:14:52;;;;;;;;;;;;;;;12.82;nan;102728.31;4989747;28;19917;-31
2023/01/03 09:17:17;;;;;;;;;;;;;;;12.91;nan;102730.50;4989212;28;19924;-31
2023/01/03 09:19:43;;;;;;;;;;;;;;;12.97;nan;102739.63;4989186;28;19922;-31
2023/01/03 09:22:08;;;;;;;;;;;;;;;13.00;nan;102742.69;4989891;28;19924;-31
2023/01/03 09:24:34;;;;;;;;;;;;;;;12.96;nan;102748.72;4989193;28;19918;-31
2023/01/03 09:26:59;;;;;;;;;;;;;;;13.00;nan;102737.31;4989121;28;19918;-31
2023/01/03 09:29:24;;;;;;;;;;;;;;;12.98;nan;102736.69;4988556;28;19918;-31
2023/01/03 09:31:49;;;;;;;;;;;;;;;12.99;nan;102730.28;4988991;28;19922;-31
2023/01/03 09:34:15;;;;;;;;;;;;;;;13.06;nan;102729.41;4989205;28;19923;-31
2023/01/03 09:36:40;;;;;;;;;;;;;;;13.12;nan;102732.06;4988796;28;19971;-32
2023/01/03 09:39:05;;;;;;;;;;;;;;;13.07;nan;102731.06;4989118;28;19918;-31
2023/01/03 09:41:31;;;;;;;;;;;;;;;13.13;nan;102731.03;4992296;28;19925;-31
2023/01/03 09:44:02;;;;;;;;;;;;;;;13.15;nan;102733.50;4992826;28;20164;-31
2023/01/03 09:46:29;;;;;;;;;;;;;;;13.21;nan;102738.03;4992255;28;19917;-31
2023/01/03 09:48:56;;;;;;;;;;;;;;;13.26;nan;102744.41;4992251;28;19921;-32
2023/01/03 10:05:44;;;;;;;;;;;;;;;13.66;nan;102754.09;4993007;28;19924;-31
2023/01/03 10:08:21;;;;;;;;;;;;;;;13.80;nan;102745.66;4991905;28;20370;-31
2023/01/03 10:10:53;;;;;;;;;;;;;;;13.93;nan;102750.09;4991741;28;20422;-32
2023/01/03 10:13:27;;;;;;;;;;;;;;;14.00;nan;102747.34;4992224;28;19922;-32
2023/01/03 10:15:55;;;;;;;;;;;;;;;14.03;nan;102753.13;4992470;28;19928;-32
2023/01/03 10:18:33;;;;;;;;;;;;;;;14.04;nan;102753.97;4991352;28;20418;-31
2023/01/03 10:21:04;;;;;;;;;;;;;;;14.00;nan;102750.84;4991990;28;20371;-31
2023/01/03 10:23:30;;;;;;;;;;;;;;;13.96;nan;102746.97;4991513;28;20387;-32
2023/01/03 10:25:56;;;;;;;;;;;;;;;13.98;nan;102754.81;4991674;28;19933;-31
2023/01/03 10:28:25;;;;;;;;;;;;;;;14.05;nan;102755.59;4991311;28;19929;-31
2023/01/03 10:31:16;;;;;;;;;;;;;;;14.26;nan;102765.13;4991729;28;19948;-31
2023/01/03 10:33:46;;;;;;;;;;;;;;;14.33;nan;102764.00;4991450;28;19925;-31
2023/01/03 10:36:13;;;;;;;;;;;;;;;14.42;nan;102756.47;4991700;28;19922;-32
2023/01/03 10:38:39;;;;;;;;;;;;;;;14.49;nan;102762.63;4990693;28;19972;-32
2023/01/03 10:41:13;;;;;;;;;;;;;;;14.47;nan;102764.72;4996491;28;20379;-32
2023/01/03 10:43:42;;;;;;;;;;;;;;;14.44;nan;102765.19;4990888;28;20410;-32
2023/01/03 10:46:21;;;;;;;;;;;;;;;14.53;nan;102774.59;4991505;28;19917;-31
2023/01/03 10:48:50;;;;;;;;;;;;;;;14.65;nan;102766.59;4990667;28;20932;-32
2023/01/03 10:51:35;;;;;;;;;;;;;;;14.69;nan;102762.38;4991088;28;20011;-32
2023/01/03 10:54:10;;;;;;;;;;;;;;;14.65;nan;102762.00;4987265;28;20284;-32
2023/01/03 10:56:35;;;;;;;;;;;;;;;14.68;nan;102756.16;4990875;28;19921;-32
2023/01/03 10:59:19;;;;;;;;;;;;;;;14.74;nan;102763.38;4991223;28;19930;-32
2023/01/03 11:02:02;;;;;;;;;;;;;;;14.81;nan;102760.56;4990651;28;20028;-32
2023/01/03 11:04:28;;;;;;;;;;;;;;;14.86;nan;102758.00;4990709;28;19918;-32
2023/01/03 11:07:14;;;;;;;;;;;;;;;14.91;nan;102760.88;4991423;28;20406;-32
2023/01/03 11:09:47;;;;;;;;;;;;;;;14.80;nan;102762.44;4990688;28;19929;-32
2023/01/03 11:12:16;;;;;;;;;;;;;;;14.75;nan;102756.09;4990891;28;19964;-32
2023/01/03 11:14:49;;;;;;;;;;;;;;;14.69;nan;102755.09;4995714;28;20394;-32
2023/01/03 11:17:17;;;;;;;;;;;;;;;14.64;nan;102763.06;4990989;28;20326;-32
2023/01/03 11:19:44;;;;;;;;;;;;;;;14.66;nan;102749.34;4990570;28;20330;-32
2023/01/03 11:22:18;;;;;;;;;;;;;;;14.75;nan;102753.41;4991402;28;20379;-32
2023/01/03 11:24:56;;;;;;;;;;;;;;;14.79;nan;102752.72;4990658;28;20066;-32
2023/01/03 11:27:27;;;;;;;;;;;;;;;14.81;nan;102752.47;4990277;28;19925;-32
2023/01/03 11:30:25;;;;;;;;;;;;;;;14.94;nan;102759.59;4991284;28;19968;-32
2023/01/03 11:32:51;;;;;;;;;;;;;;;15.04;nan;102757.16;4990957;28;20303;-32
2023/01/03 11:35:19;;;;;;;;;;;;;;;15.09;nan;102754.59;4990537;28;19926;-32
2023/01/03 11:37:44;;;;;;;;;;;;;;;15.24;nan;102752.28;4988258;28;19961;-32
2023/01/03 11:40:16;;;;;;;;;;;;;;;15.35;nan;102756.91;4993791;28;20410;-32
2023/01/03 11:42:41;;;;;;;;;;;;;;;15.40;nan;102750.81;4994219;28;20146;-32
2023/01/03 11:45:21;;;;;;;;;;;;;;;15.46;nan;102746.38;4996104;28;20295;-32
2023/01/03 11:47:53;;;;;;;;;;;;;;;15.43;nan;102743.06;4994526;28;19940;-32
2023/01/03 11:50:31;;;;;;;;;;;;;;;15.55;nan;102739.56;4987531;28;20180;-32
2023/01/03 11:52:56;;;;;;;;;;;;;;;15.59;nan;102749.69;4995611;28;19929;-32
2023/01/03 11:55:54;;;;;;;;;;;;;;;15.58;nan;102750.72;4992073;28;19918;-32
2023/01/03 11:58:45;;;;;;;;;;;;;;;15.57;nan;102748.25;4984217;28;20349;-32
2023/01/03 12:01:29;;;;;;;;;;;;;;;15.49;nan;102756.72;4994887;28;20385;-32
2023/01/03 12:04:06;;;;;;;;;;;;;;;15.50;nan;102756.47;4993340;28;19922;-32
2023/01/03 12:06:51;;;;;;;;;;;;;;;15.62;nan;102756.53;4990124;28;19925;-32
2023/01/03 12:09:26;;;;;;;;;;;;;;;15.63;nan;102759.00;4995459;28;19944;-32
2023/01/03 12:12:14;;;;;;;;;;;;;;;15.68;nan;102750.19;4990450;28;20442;-33
2023/01/03 12:14:46;;;;;;;;;;;;;;;15.75;nan;102756.28;4988692;28;19929;-33
2023/01/03 12:17:19;;;;;;;;;;;;;;;15.90;nan;102753.97;4987372;28;20306;-33
2023/01/03 12:19:49;;;;;;;;;;;;;;;15.99;nan;102751.75;4988099;28;19922;-33
2023/01/03 12:22:21;;;;;;;;;;;;;;;16.01;nan;102755.03;4989236;28;19968;-33
2023/01/03 12:25:09;;;;;;;;;;;;;;;16.06;nan;102746.19;4988678;28;20303;-33
2023/01/03 12:27:36;;;;;;;;;;;;;;;16.04;nan;102756.44;4985980;28;19917;-33
2023/01/03 12:30:04;;;;;;;;;;;;;;;16.04;nan;102759.13;4987796;28;20059;-33
2023/01/03 12:32:43;;;;;;;;;;;;;;;16.05;nan;102755.38;4989750;28;20311;-33
2023/01/03 12:35:14;;;;;;;;;;;;;;;16.03;nan;102750.19;4988613;28;19922;-33
2023/01/03 12:37:40;;;;;;;;;;;;;;;15.98;nan;102753.63;4988278;28;20211;-33
2023/01/03 12:40:16;;;;;;;;;;;;;;;15.94;nan;102754.31;4987998;28;19964;-33
2023/01/03 12:42:59;;;;;;;;;;;;;;;15.77;nan;102754.19;4987406;28;19921;-33
2023/01/03 12:45:31;;;;;;;;;;;;;;;15.54;nan;102760.34;4987880;28;19918;-33
2023/01/03 12:48:04;;;;;;;;;;;;;;;15.42;nan;102757.63;4987239;28;19922;-33
2023/01/03 12:50:33;;;;;;;;;;;;;;;15.30;nan;102754.09;4987436;28;20342;-33
2023/01/03 12:53:12;;;;;;;;;;;;;;;15.21;nan;102749.22;4987522;28;19933;-33
2023/01/03 12:55:56;;;;;;;;;;;;;;;15.05;nan;102754.22;4987770;28;19925;-33
2023/01/03 12:58:40;;;;;;;;;;;;;;;14.99;nan;102757.03;4987838;28;20156;-33
2023/01/03 13:01:14;;;;;;;;;;;;;;;14.90;nan;102758.38;4987822;28;19926;-33
2023/01/03 13:03:42;;;;;;;;;;;;;;;14.90;nan;102752.97;4987653;28;19928;-33
2023/01/03 13:06:19;;;;;;;;;;;;;;;14.88;nan;102755.09;4985822;28;20118;-33
2023/01/03 13:08:49;;;;;;;;;;;;;;;14.77;nan;102749.41;4986812;28;20345;-33
2023/01/03 13:11:27;;;;;;;;;;;;;;;14.80;nan;102743.56;4988433;28;19960;-33
2023/01/03 13:13:58;;;;;;;;;;;;;;;15.15;nan;102750.97;4988857;28;19936;-33
2023/01/03 13:16:29;;;;;;;;;;;;;;;16.36;nan;102744.16;4991843;28;19965;-33
2023/01/03 13:18:55;;;;;;;;;;;;;;;17.23;nan;102741.25;4990548;28;19929;-33
2023/01/03 13:21:39;;;;;;;;;;;;;;;17.53;nan;102743.69;4991561;28;20330;-33
2023/01/03 13:24:06;;;;;;;;;;;;;;;17.91;nan;102748.38;4991023;28;19922;-33
2023/01/03 13:26:31;;;;;;;;;;;;;;;18.61;nan;102757.72;4990550;28;19921;-33
2023/01/03 13:29:15;;;;;;;;;;;;;;;19.30;nan;102761.50;4990107;28;19917;-34
2023/01/03 13:31:41;;;;;;;;;;;;;;;19.83;nan;102753.50;4990718;28;20006;-34
2023/01/03 13:34:12;;;;;;;;;;;;;;;20.00;nan;102754.16;4990276;28;19988;-34
2023/01/03 13:36:56;;;;;;;;;;;;;;;20.20;nan;102753.47;4990358;28;19918;-34
2023/01/03 13:39:40;;;;;;;;;;;;;;;20.20;nan;102753.47;4990282;28;19961;-34
2023/01/03 13:42:18;;;;;;;;;;;;;;;20.28;nan;102746.69;4990755;28;19984;-34
2023/01/03 13:44:43;;;;;;;;;;;;;;;20.31;nan;102747.00;4990379;28;20132;-34
2023/01/03 13:47:21;;;;;;;;;;;;;;;20.10;nan;102743.31;4990115;28;19952;-34
2023/01/03 13:49:47;;;;;;;;;;;;;;;20.03;nan;102744.66;4991341;28;19921;-34
2023/01/03 13:52:32;;;;;;;;;;;;;;;19.88;nan;102734.50;4992675;28;20498;-34
2023/01/03 13:54:57;;;;;;;;;;;;;;;19.77;nan;102744.50;4996091;28;20342;-34
2023/01/03 13:57:27;;;;;;;;;;;;;;;19.71;nan;102736.56;4995705;28;19918;-33
2023/01/03 13:59:53;;;;;;;;;;;;;;;19.64;nan;102749.56;4993790;28;19921;-33
2023/01/03 14:02:27;;;;;;;;;;;;;;;19.65;nan;102746.59;4989786;28;19921;-33
2023/01/03 14:04:53;;;;;;;;;;;;;;;19.59;nan;102737.56;4989038;28;19936;-33
2023/01/03 14:07:27;;;;;;;;;;;;;;;19.43;nan;102749.38;4987923;28;19913;-33